CSL Assiniboine — VCKQ — position and weather

sailwx.info

Track history (hours):
 
Tides and Currents Weather Stations Pressure Air Temp Water Temp Dewpoint Dewpoint Depression Visibility Wind Speed Wind Dir Waves Ship Positions

CSL Assiniboine

Last reported at 2018-Jan-08 15:01 UTC. Time now 2018-Feb-22 13:13 UTC.
Position N 46°51' W 091°47'.
Warning: this ship's position is 44 days out of date.

Length 225 m; draft 7.3 m.

Type: Cargo ship. MMSI: 316001633.

Date/timePositionNaut miles runAvg speedWind from/ knotsBaromVisibWave heightAir tempDewpointWater temp
2018-Jan-08 15:01N 46°51' W 091°47'611.7
2018-Jan-08 14:30N 46°48' W 091°54'3 6.4
2018-Jan-08 14:00N 46°45' W 091°58'1 1.1
2018-Jan-08 13:31N 46°45' W 091°58'0 0.1
2018-Jan-08 13:01N 46°45' W 091°58'0 0.0
2018-Jan-08 12:30N 46°45' W 091°58'0 0.0
2018-Jan-08 12:01N 46°45' W 091°58'0 0.0
2018-Jan-08 11:30N 46°45' W 091°58'0 0.0
2018-Jan-08 11:00N 46°45' W 091°58'0 0.0
2018-Jan-08 10:30N 46°45' W 091°58'0 0.0
2018-Jan-08 10:00N 46°45' W 091°58'0 0.0
2018-Jan-08 09:30N 46°45' W 091°58'0 0.0
2018-Jan-08 09:00N 46°45' W 091°58'0 0.0
2018-Jan-08 08:30N 46°45' W 091°58'0 0.1
2018-Jan-08 08:00N 46°45' W 091°58'0 0.0
2018-Jan-08 07:30N 46°45' W 091°58'0 0.0
2018-Jan-08 07:00N 46°45' W 091°58'0 0.1
2018-Jan-08 06:30N 46°45' W 091°58'0 0.0
2018-Jan-08 06:00N 46°45' W 091°58'0 0.1
2018-Jan-08 05:30N 46°45' W 091°58'0 0.1
2018-Jan-08 05:00N 46°45' W 091°58'0 0.0
2018-Jan-08 04:30N 46°45' W 091°58'0 0.0
2018-Jan-08 04:00N 46°45' W 091°58'0 0.2
2018-Jan-08 03:30N 46°45' W 091°58'0 0.1
2018-Jan-08 03:00N 46°45' W 091°58'0 0.0
2018-Jan-08 02:30N 46°45' W 091°58'0 0.0
2018-Jan-08 02:01N 46°45' W 091°58'0 0.0
2018-Jan-08 01:31N 46°45' W 091°58'0 0.0
2018-Jan-08 01:00N 46°45' W 091°58'0 0.0
2018-Jan-08 00:30N 46°45' W 091°58'0 0.0
2018-Jan-08 00:00N 46°45' W 091°58'0 0.0
2018-Jan-07 23:30N 46°45' W 091°58'0 0.0
2018-Jan-07 23:00N 46°45' W 091°58'0 0.0
2018-Jan-07 22:30N 46°45' W 091°58'0 0.2
2018-Jan-07 22:00N 46°45' W 091°58'1 2.5
2018-Jan-07 21:30N 46°44' W 091°58'3 5.4
2018-Jan-07 21:00N 46°42' W 092°01'0 0.7
2018-Jan-07 20:30N 46°42' W 092°01'0 0.0
2018-Jan-07 19:59N 46°42' W 092°01'0 0.0
2018-Jan-07 19:30N 46°42' W 092°01'0 0.0
2018-Jan-07 19:00N 46°42' W 092°01'0 0.0
2018-Jan-07 18:30N 46°42' W 092°01'0 0.0
2018-Jan-07 18:00N 46°42' W 092°01'0 0.0
2018-Jan-07 17:30N 46°42' W 092°01'0 0.0
2018-Jan-07 17:00N 46°42' W 092°01'0 0.0
2018-Jan-07 16:30N 46°42' W 092°01'0 0.0
2018-Jan-07 16:00N 46°42' W 092°01'0 0.0
2018-Jan-07 15:30N 46°42' W 092°01'0 0.0
2018-Jan-07 15:00N 46°42' W 092°01'0 0.0
2018-Jan-07 14:30N 46°42' W 092°01'0 0.0
2018-Jan-07 14:00N 46°42' W 092°01'0 0.0
2018-Jan-07 13:30N 46°42' W 092°01'0 0.0
2018-Jan-07 13:00N 46°42' W 092°01'0 0.0
2018-Jan-07 12:29N 46°42' W 092°01'0 0.0
2018-Jan-07 12:00N 46°42' W 092°01'0 0.0
2018-Jan-07 11:30N 46°42' W 092°01'0 0.0
2018-Jan-07 11:00N 46°42' W 092°01'0 0.0
2018-Jan-07 10:30N 46°42' W 092°01'0 0.0
2018-Jan-07 10:01N 46°42' W 092°01'0 0.0
2018-Jan-07 09:30N 46°42' W 092°01'0 0.0
2018-Jan-07 09:00N 46°42' W 092°01'0 0.0
2018-Jan-07 08:30N 46°42' W 092°01'0 0.0
2018-Jan-07 08:00N 46°42' W 092°01'0 0.0
2018-Jan-07 07:30N 46°42' W 092°01'0 0.0
2018-Jan-07 07:00N 46°42' W 092°01'0 0.0
2018-Jan-07 06:30N 46°42' W 092°01'0 0.8
2018-Jan-07 06:00N 46°42' W 092°01'2 4.0
2018-Jan-07 05:30N 46°43' W 091°59'510.4
2018-Jan-07 05:00N 46°46' W 091°52'510.4
2018-Jan-07 04:30N 46°49' W 091°46'2 3.0
2018-Jan-07 04:00N 46°49' W 091°43'0 0.7
2018-Jan-07 03:30N 46°49' W 091°43'1 2.3
2018-Jan-07 03:00N 46°49' W 091°42'3 5.8
2018-Jan-07 02:30N 46°51' W 091°38'3 5.3
2018-Jan-07 02:00N 46°52' W 091°35'10 2.7
2018-Jan-06 22:25N 46°50' W 091°49'2 5.7
2018-Jan-06 22:00N 46°49' W 091°51'1 2.2
2018-Jan-06 21:30N 46°48' W 091°52'0 0.2
2018-Jan-06 21:01N 46°48' W 091°52'0 0.4
2018-Jan-06 20:30N 46°48' W 091°52'0 0.4
2018-Jan-06 20:00N 46°48' W 091°52'0 0.1
2018-Jan-06 19:31N 46°48' W 091°52'0 0.0
2018-Jan-06 19:00N 46°48' W 091°52'0 0.0
2018-Jan-06 18:30N 46°48' W 091°52'0 0.0
2018-Jan-06 18:00N 46°48' W 091°52'0 0.0
2018-Jan-06 17:30N 46°48' W 091°52'0 0.0
2018-Jan-06 17:00N 46°48' W 091°52'0 0.0
2018-Jan-06 16:30N 46°48' W 091°52'0 0.0
2018-Jan-06 15:59N 46°48' W 091°52'0 0.1
2018-Jan-06 15:30N 46°48' W 091°52'2 4.5
2018-Jan-06 15:00N 46°48' W 091°49'611.5
2018-Jan-06 14:30N 46°50' W 091°41'5 6.0
2018-Jan-06 13:44N 46°51' W 091°48'312.1
2018-Jan-06 13:30N 46°49' W 091°52'4 8.4
2018-Jan-06 13:00N 46°47' W 091°57'1 1.0
2018-Jan-06 12:30N 46°47' W 091°57'0 0.1
2018-Jan-06 12:00N 46°47' W 091°57'0 0.2
2018-Jan-06 11:30N 46°47' W 091°57'0 0.3
2018-Jan-06 11:00N 46°47' W 091°57'0 0.1
2018-Jan-06 10:30N 46°47' W 091°57'0 0.0
2018-Jan-06 10:00N 46°47' W 091°57'0 0.1
2018-Jan-06 09:31N 46°47' W 091°57'0 0.0
2018-Jan-06 09:00N 46°47' W 091°57'0 0.0
2018-Jan-06 08:30N 46°47' W 091°57'0 0.1
2018-Jan-06 08:00N 46°47' W 091°57'0 0.2
2018-Jan-06 07:30N 46°47' W 091°57'0 0.1
2018-Jan-06 07:01N 46°47' W 091°57'0 0.0
2018-Jan-06 06:30N 46°47' W 091°57'0 0.1
2018-Jan-06 06:00N 46°47' W 091°57'0 0.1
2018-Jan-06 05:30N 46°46' W 091°57'0 0.0
2018-Jan-06 05:00N 46°46' W 091°57'0 0.0
2018-Jan-06 04:30N 46°46' W 091°57'0 0.1
2018-Jan-06 04:00N 46°46' W 091°58'0 0.0
2018-Jan-06 03:30N 46°46' W 091°58'0 0.0
2018-Jan-06 03:00N 46°46' W 091°58'0 0.0
2018-Jan-06 02:30N 46°46' W 091°58'0 0.0
2018-Jan-06 02:00N 46°46' W 091°58'0 0.1
2018-Jan-06 01:30N 46°46' W 091°58'0 0.0
2018-Jan-06 01:00N 46°46' W 091°57'0 0.0
2018-Jan-06 00:30N 46°46' W 091°57'0 0.0
2018-Jan-06 00:00N 46°46' W 091°57'0 0.0
2018-Jan-05 23:30N 46°46' W 091°57'0 0.3
2018-Jan-05 23:00N 46°47' W 091°57'0 0.3
2018-Jan-05 22:30N 46°47' W 091°58'0 0.1
2018-Jan-05 22:00N 46°47' W 091°58'0 0.0
2018-Jan-05 21:30N 46°47' W 091°58'0 0.0
2018-Jan-05 21:00N 46°47' W 091°58'0 0.0
2018-Jan-05 20:30N 46°47' W 091°58'0 0.0
2018-Jan-05 20:00N 46°47' W 091°58'0 0.2
2018-Jan-05 19:30N 46°47' W 091°58'0 0.1
2018-Jan-05 19:00N 46°47' W 091°58'0 0.0
2018-Jan-05 18:30N 46°47' W 091°58'0 0.0
2018-Jan-05 18:01N 46°47' W 091°58'0 0.0
2018-Jan-05 17:30N 46°47' W 091°58'0 0.0
2018-Jan-05 17:00N 46°47' W 091°58'0 0.0
2018-Jan-05 16:30N 46°47' W 091°58'0 0.0
2018-Jan-05 16:00N 46°47' W 091°58'0 0.0
2018-Jan-05 15:30N 46°47' W 091°58'0 0.1
2018-Jan-05 15:00N 46°46' W 091°58'0 0.0
2018-Jan-05 14:31N 46°46' W 091°58'0 0.0
2018-Jan-05 14:00N 46°47' W 091°58'0 0.0
2018-Jan-05 13:30N 46°46' W 091°58'0 0.0
2018-Jan-05 13:00N 46°46' W 091°58'0 0.0
2018-Jan-05 12:30N 46°46' W 091°58'0 0.0
2018-Jan-05 12:00N 46°46' W 091°58'0 0.1
2018-Jan-05 11:30N 46°46' W 091°58'0 0.1
2018-Jan-05 11:00N 46°47' W 091°58'0 0.1
2018-Jan-05 10:30N 46°46' W 091°58'0 0.1
2018-Jan-05 10:00N 46°47' W 091°58'0 0.0
2018-Jan-05 09:30N 46°47' W 091°58'0 0.0
2018-Jan-05 09:00N 46°46' W 091°58'0 0.0
2018-Jan-05 08:30N 46°47' W 091°58'0 0.0
2018-Jan-05 08:00N 46°46' W 091°58'0 0.0
2018-Jan-05 07:30N 46°46' W 091°58'0 0.1
2018-Jan-05 07:00N 46°46' W 091°58'0 0.0
2018-Jan-05 06:30N 46°46' W 091°58'0 0.0
2018-Jan-05 06:00N 46°46' W 091°58'0 0.0
2018-Jan-05 05:30N 46°46' W 091°58'0 0.0
2018-Jan-05 05:01N 46°46' W 091°58'0 0.1
2018-Jan-05 04:30N 46°46' W 091°58'0 0.1
2018-Jan-05 04:01N 46°46' W 091°58'0 0.0
2018-Jan-05 03:30N 46°46' W 091°58'0 0.1
2018-Jan-05 03:00N 46°46' W 091°58'0 0.0
2018-Jan-05 02:31N 46°46' W 091°58'0 0.0
2018-Jan-05 02:01N 46°46' W 091°58'0 0.0
2018-Jan-05 01:30N 46°46' W 091°58'0 0.0
2018-Jan-05 01:00N 46°46' W 091°58'0 0.0
2018-Jan-05 00:31N 46°46' W 091°58'0 0.1
2018-Jan-05 00:00N 46°47' W 091°57'0 0.0
2018-Jan-04 23:30N 46°47' W 091°57'0 0.0
2018-Jan-04 23:00N 46°47' W 091°57'0 0.4
2018-Jan-04 22:30N 46°47' W 091°57'0 0.0
2018-Jan-04 22:00N 46°47' W 091°57'0 0.0
2018-Jan-04 21:30N 46°47' W 091°57'0 0.1
2018-Jan-04 21:00N 46°47' W 091°58'0 0.0
2018-Jan-04 20:30N 46°47' W 091°58'0 0.0
2018-Jan-04 20:00N 46°47' W 091°58'0 0.0
2018-Jan-04 19:30N 46°47' W 091°58'0 0.0
2018-Jan-04 19:00N 46°47' W 091°57'0 0.1
2018-Jan-04 18:30N 46°47' W 091°57'0 0.1
2018-Jan-04 18:00N 46°47' W 091°57'0 0.0
2018-Jan-04 17:30N 46°47' W 091°57'0 0.4
2018-Jan-04 17:00N 46°47' W 091°57'0 0.3
2018-Jan-04 16:30N 46°46' W 091°58'0 0.0
2018-Jan-04 16:00N 46°46' W 091°58'0 0.0
2018-Jan-04 15:30N 46°46' W 091°58'0 0.0
2018-Jan-04 15:00N 46°46' W 091°58'0 0.0
2018-Jan-04 14:31N 46°46' W 091°58'0 0.0
2018-Jan-04 14:00N 46°46' W 091°58'0 0.0
2018-Jan-04 13:30N 46°46' W 091°58'0 0.0
2018-Jan-04 13:01N 46°46' W 091°58'0 0.1
2018-Jan-04 12:31N 46°47' W 091°58'0 0.0
2018-Jan-04 12:00N 46°46' W 091°58'0 0.1
2018-Jan-04 11:30N 46°46' W 091°58'0 0.0
2018-Jan-04 11:00N 46°46' W 091°58'0 0.0
2018-Jan-04 10:30N 46°46' W 091°58'0 0.0
2018-Jan-04 10:00N 46°46' W 091°58'0 0.0
2018-Jan-04 09:30N 46°46' W 091°58'0 0.0
2018-Jan-04 09:00N 46°46' W 091°58'0 0.0
2018-Jan-04 08:30N 46°47' W 091°58'0 0.0
2018-Jan-04 08:00N 46°46' W 091°58'0 0.1
2018-Jan-04 07:30N 46°47' W 091°58'0 0.0
2018-Jan-04 07:00N 46°47' W 091°58'0 0.0
2018-Jan-04 06:30N 46°47' W 091°58'0 0.0
2018-Jan-04 06:00N 46°47' W 091°58'0 0.2
2018-Jan-04 05:30N 46°46' W 091°58'0 0.0
2018-Jan-04 05:00N 46°46' W 091°58'0 0.1
2018-Jan-04 04:30N 46°46' W 091°58'0 0.0
2018-Jan-04 04:00N 46°46' W 091°58'0 0.1
2018-Jan-04 03:30N 46°46' W 091°58'0 0.0
2018-Jan-04 03:00N 46°46' W 091°58'0 0.0
2018-Jan-04 02:31N 46°46' W 091°58'0 0.0
2018-Jan-04 02:00N 46°46' W 091°58'0 0.1
2018-Jan-04 01:31N 46°46' W 091°58'0 0.1
2018-Jan-04 01:01N 46°46' W 091°58'0 0.0
2018-Jan-04 00:31N 46°46' W 091°58'0 0.0
2018-Jan-04 00:00N 46°46' W 091°58'0 0.0
2018-Jan-03 23:30N 46°46' W 091°58'0 0.0
2018-Jan-03 23:00N 46°47' W 091°57'0 0.0
2018-Jan-03 22:31N 46°46' W 091°57'0 0.0
2018-Jan-03 22:00N 46°46' W 091°57'0 0.0
2018-Jan-03 21:30N 46°46' W 091°58'0 0.0
2018-Jan-03 21:01N 46°46' W 091°58'0 0.0
2018-Jan-03 20:30N 46°46' W 091°58'0 0.1
2018-Jan-03 20:00N 46°46' W 091°58'0 0.0
2018-Jan-03 19:30N 46°46' W 091°58'0 0.0
2018-Jan-03 19:00N 46°46' W 091°58'0 0.1
2018-Jan-03 18:30N 46°46' W 091°57'0 0.0
2018-Jan-03 18:00N 46°46' W 091°58'0 0.0
2018-Jan-03 17:30N 46°46' W 091°57'0 0.0
2018-Jan-03 17:00N 46°46' W 091°58'0 0.0
2018-Jan-03 16:30N 46°46' W 091°58'0 0.0
2018-Jan-03 16:00N 46°46' W 091°58'0 0.0
2018-Jan-03 15:30N 46°46' W 091°58'0 0.1
2018-Jan-03 15:00N 46°46' W 091°57'0 0.0
2018-Jan-03 14:30N 46°46' W 091°57'0 0.1
2018-Jan-03 14:00N 46°46' W 091°58'0 0.0
2018-Jan-03 13:30N 46°46' W 091°58'0 0.0
2018-Jan-03 13:00N 46°46' W 091°58'0 0.0
2018-Jan-03 12:31N 46°46' W 091°58'0 0.0
2018-Jan-03 12:00N 46°46' W 091°58'0 0.0
2018-Jan-03 11:31N 46°46' W 091°58'0 0.1
2018-Jan-03 11:00N 46°47' W 091°57'0 0.1
2018-Jan-03 10:31N 46°46' W 091°58'0 0.0
2018-Jan-03 10:01N 46°46' W 091°58'0 0.1
2018-Jan-03 09:30N 46°46' W 091°57'0 0.1
2018-Jan-03 09:01N 46°47' W 091°57'0 0.1
2018-Jan-03 08:30N 46°46' W 091°57'0 0.0
2018-Jan-03 08:00N 46°46' W 091°58'0 0.0
2018-Jan-03 07:30N 46°46' W 091°58'0 0.0
2018-Jan-03 07:00N 46°46' W 091°58'0 0.1
2018-Jan-03 06:30N 46°46' W 091°57'0 0.0
2018-Jan-03 06:00N 46°47' W 091°57'0 0.2
2018-Jan-03 05:30N 46°46' W 091°58'0 0.1
2018-Jan-03 05:00N 46°46' W 091°58'0 0.0
2018-Jan-03 04:30N 46°46' W 091°58'0 0.0
2018-Jan-03 04:00N 46°46' W 091°58'0 0.0
2018-Jan-03 03:30N 46°46' W 091°58'0 0.1
2018-Jan-03 03:00N 46°47' W 091°57'0 0.0
2018-Jan-03 02:30N 46°47' W 091°57'0 0.0
2018-Jan-03 02:00N 46°47' W 091°57'0 0.1
2018-Jan-03 01:30N 46°47' W 091°57'0 0.1
2018-Jan-03 01:00N 46°47' W 091°57'0 0.2
2018-Jan-03 00:30N 46°47' W 091°57'0 0.1
2018-Jan-03 00:00N 46°47' W 091°57'0 0.0
2018-Jan-02 23:30N 46°47' W 091°57'0 0.0
2018-Jan-02 23:01N 46°47' W 091°57'0 0.1
2018-Jan-02 22:31N 46°47' W 091°57'0 0.0
2018-Jan-02 22:01N 46°47' W 091°57'0 0.0
2018-Jan-02 21:31N 46°47' W 091°57'0 0.1
2018-Jan-02 21:01N 46°47' W 091°57'0 0.0
2018-Jan-02 20:31N 46°47' W 091°57'0 0.1
2018-Jan-02 20:00N 46°47' W 091°57'0 0.1
2018-Jan-02 19:31N 46°47' W 091°57'0 0.0
2018-Jan-02 19:00N 46°47' W 091°57'0 0.0
2018-Jan-02 18:30N 46°47' W 091°57'0 0.0
2018-Jan-02 18:00N 46°47' W 091°57'0 0.0
2018-Jan-02 17:30N 46°47' W 091°57'0 0.2
2018-Jan-02 17:00N 46°47' W 091°57'2 4.1
2018-Jan-02 16:30N 46°48' W 091°60'0 0.2
2018-Jan-02 16:00N 46°48' W 091°60'0 0.3
2018-Jan-02 15:30N 46°48' W 091°60'0 0.1
2018-Jan-02 15:00N 46°48' W 091°60'0 0.0
2018-Jan-02 14:30N 46°48' W 091°60'0 0.0
2018-Jan-02 14:00N 46°48' W 091°60'0 0.0
2018-Jan-02 13:30N 46°48' W 091°60'0 0.0
2018-Jan-02 13:00N 46°48' W 091°60'0 0.1
2018-Jan-02 12:30N 46°48' W 091°60'0 0.0
2018-Jan-02 12:00N 46°48' W 091°60'0 0.0
2018-Jan-02 11:30N 46°48' W 091°60'0 0.1
2018-Jan-02 11:00N 46°48' W 091°60'0 0.0
2018-Jan-02 10:30N 46°48' W 091°60'0 0.1
2018-Jan-02 10:00N 46°48' W 091°60'0 0.0
2018-Jan-02 09:31N 46°48' W 091°60'0 0.0
2018-Jan-02 08:31N 46°48' W 091°60'0 0.1
2018-Jan-02 08:01N 46°48' W 091°60'0 0.1
2018-Jan-02 07:30N 46°48' W 091°60'0 0.0
2018-Jan-02 07:00N 46°48' W 091°60'0 0.0
2018-Jan-02 06:30N 46°48' W 091°60'0 0.0
2018-Jan-02 06:00N 46°48' W 091°60'0 0.0
2018-Jan-02 05:29N 46°48' W 091°60'0 0.0
2018-Jan-02 04:30N 46°48' W 091°60'0 0.0
2018-Jan-02 04:00N 46°48' W 091°60'0 0.0
2018-Jan-02 03:30N 46°48' W 091°60'0 0.1
2018-Jan-02 03:00N 46°48' W 092°00'2 4.8
2018-Jan-02 02:30N 46°47' W 092°03'2 4.8
2018-Jan-02 02:00N 46°46' W 092°06'0 0.3
2018-Jan-02 01:30N 46°46' W 092°06'0 0.0
2018-Jan-02 01:00N 46°46' W 092°06'0 0.0
2018-Jan-02 00:30N 46°46' W 092°06'0 0.0
2018-Jan-02 00:00N 46°46' W 092°06'0 0.0
2018-Jan-01 23:30N 46°46' W 092°06'0 0.0
2018-Jan-01 23:00N 46°46' W 092°06'0 0.0
2018-Jan-01 22:30N 46°46' W 092°06'0 0.0
2018-Jan-01 22:00N 46°46' W 092°06'0 0.0
2018-Jan-01 21:30N 46°46' W 092°06'0 0.0
2018-Jan-01 21:00N 46°46' W 092°06'0 0.0
2018-Jan-01 20:30N 46°46' W 092°06'0 0.0
2018-Jan-01 20:00N 46°46' W 092°06'0 0.0
2018-Jan-01 19:31N 46°46' W 092°06'0 0.0
2018-Jan-01 19:00N 46°46' W 092°06'0 0.0
2018-Jan-01 18:30N 46°46' W 092°06'0 0.0
2018-Jan-01 18:01N 46°46' W 092°06'1 1.2
2018-Jan-01 17:30N 46°46' W 092°06'5 1.8
2018-Jan-01 15:01N 46°49' W 092°00'2 3.4
2018-Jan-01 14:31N 46°50' W 091°58'3 5.2
2018-Jan-01 14:01N 46°51' W 091°55'4 8.6
2018-Jan-01 13:31N 46°53' W 091°50'5 9.1
2018-Jan-01 13:01N 46°56' W 091°44'346 7.9
2017-Dec-30 17:21N 45°39' W 083°36'511.7
2017-Dec-30 16:54N 45°34' W 083°31'911.6
2017-Dec-30 16:08N 45°27' W 083°24'  
Track history (hours):
 
Tides and Currents Weather Stations Pressure Air Temp Water Temp Dewpoint Dewpoint Depression Visibility Wind Speed Wind Dir Waves Ship Positions

CSL Assiniboine

Last reported at 2018-Jan-08 15:01 UTC. Time now 2018-Feb-22 13:13 UTC.
Position N 46°51' W 091°47'.
Warning: this ship's position is 44 days out of date.

Length 225 m; draft 7.3 m.

Type: Cargo ship. MMSI: 316001633.

Date/timePositionNaut miles runAvg speedWind from/ knotsBaromVisibWave heightAir tempDewpointWater temp
2018-Jan-08 15:01N 46°51' W 091°47'611.7
2018-Jan-08 14:30N 46°48' W 091°54'3 6.4
2018-Jan-08 14:00N 46°45' W 091°58'1 1.1
2018-Jan-08 13:31N 46°45' W 091°58'0 0.1
2018-Jan-08 13:01N 46°45' W 091°58'0 0.0
2018-Jan-08 12:30N 46°45' W 091°58'0 0.0
2018-Jan-08 12:01N 46°45' W 091°58'0 0.0
2018-Jan-08 11:30N 46°45' W 091°58'0 0.0
2018-Jan-08 11:00N 46°45' W 091°58'0 0.0
2018-Jan-08 10:30N 46°45' W 091°58'0 0.0
2018-Jan-08 10:00N 46°45' W 091°58'0 0.0
2018-Jan-08 09:30N 46°45' W 091°58'0 0.0
2018-Jan-08 09:00N 46°45' W 091°58'0 0.0
2018-Jan-08 08:30N 46°45' W 091°58'0 0.1
2018-Jan-08 08:00N 46°45' W 091°58'0 0.0
2018-Jan-08 07:30N 46°45' W 091°58'0 0.0
2018-Jan-08 07:00N 46°45' W 091°58'0 0.1
2018-Jan-08 06:30N 46°45' W 091°58'0 0.0
2018-Jan-08 06:00N 46°45' W 091°58'0 0.1
2018-Jan-08 05:30N 46°45' W 091°58'0 0.1
2018-Jan-08 05:00N 46°45' W 091°58'0 0.0
2018-Jan-08 04:30N 46°45' W 091°58'0 0.0
2018-Jan-08 04:00N 46°45' W 091°58'0 0.2
2018-Jan-08 03:30N 46°45' W 091°58'0 0.1
2018-Jan-08 03:00N 46°45' W 091°58'0 0.0
2018-Jan-08 02:30N 46°45' W 091°58'0 0.0
2018-Jan-08 02:01N 46°45' W 091°58'0 0.0
2018-Jan-08 01:31N 46°45' W 091°58'0 0.0
2018-Jan-08 01:00N 46°45' W 091°58'0 0.0
2018-Jan-08 00:30N 46°45' W 091°58'0 0.0
2018-Jan-08 00:00N 46°45' W 091°58'0 0.0
2018-Jan-07 23:30N 46°45' W 091°58'0 0.0
2018-Jan-07 23:00N 46°45' W 091°58'0 0.0
2018-Jan-07 22:30N 46°45' W 091°58'0 0.2
2018-Jan-07 22:00N 46°45' W 091°58'1 2.5
2018-Jan-07 21:30N 46°44' W 091°58'3 5.4
2018-Jan-07 21:00N 46°42' W 092°01'0 0.7
2018-Jan-07 20:30N 46°42' W 092°01'0 0.0
2018-Jan-07 19:59N 46°42' W 092°01'0 0.0
2018-Jan-07 19:30N 46°42' W 092°01'0 0.0
2018-Jan-07 19:00N 46°42' W 092°01'0 0.0
2018-Jan-07 18:30N 46°42' W 092°01'0 0.0
2018-Jan-07 18:00N 46°42' W 092°01'0 0.0
2018-Jan-07 17:30N 46°42' W 092°01'0 0.0
2018-Jan-07 17:00N 46°42' W 092°01'0 0.0
2018-Jan-07 16:30N 46°42' W 092°01'0 0.0
2018-Jan-07 16:00N 46°42' W 092°01'0 0.0
2018-Jan-07 15:30N 46°42' W 092°01'0 0.0
2018-Jan-07 15:00N 46°42' W 092°01'0 0.0
2018-Jan-07 14:30N 46°42' W 092°01'0 0.0
2018-Jan-07 14:00N 46°42' W 092°01'0 0.0
2018-Jan-07 13:30N 46°42' W 092°01'0 0.0
2018-Jan-07 13:00N 46°42' W 092°01'0 0.0
2018-Jan-07 12:29N 46°42' W 092°01'0 0.0
2018-Jan-07 12:00N 46°42' W 092°01'0 0.0
2018-Jan-07 11:30N 46°42' W 092°01'0 0.0
2018-Jan-07 11:00N 46°42' W 092°01'0 0.0
2018-Jan-07 10:30N 46°42' W 092°01'0 0.0
2018-Jan-07 10:01N 46°42' W 092°01'0 0.0
2018-Jan-07 09:30N 46°42' W 092°01'0 0.0
2018-Jan-07 09:00N 46°42' W 092°01'0 0.0
2018-Jan-07 08:30N 46°42' W 092°01'0 0.0
2018-Jan-07 08:00N 46°42' W 092°01'0 0.0
2018-Jan-07 07:30N 46°42' W 092°01'0 0.0
2018-Jan-07 07:00N 46°42' W 092°01'0 0.0
2018-Jan-07 06:30N 46°42' W 092°01'0 0.8
2018-Jan-07 06:00N 46°42' W 092°01'2 4.0
2018-Jan-07 05:30N 46°43' W 091°59'510.4
2018-Jan-07 05:00N 46°46' W 091°52'510.4
2018-Jan-07 04:30N 46°49' W 091°46'2 3.0
2018-Jan-07 04:00N 46°49' W 091°43'0 0.7
2018-Jan-07 03:30N 46°49' W 091°43'1 2.3
2018-Jan-07 03:00N 46°49' W 091°42'3 5.8
2018-Jan-07 02:30N 46°51' W 091°38'3 5.3
2018-Jan-07 02:00N 46°52' W 091°35'10 2.7
2018-Jan-06 22:25N 46°50' W 091°49'2 5.7
2018-Jan-06 22:00N 46°49' W 091°51'1 2.2
2018-Jan-06 21:30N 46°48' W 091°52'0 0.2
2018-Jan-06 21:01N 46°48' W 091°52'0 0.4
2018-Jan-06 20:30N 46°48' W 091°52'0 0.4
2018-Jan-06 20:00N 46°48' W 091°52'0 0.1
2018-Jan-06 19:31N 46°48' W 091°52'0 0.0
2018-Jan-06 19:00N 46°48' W 091°52'0 0.0
2018-Jan-06 18:30N 46°48' W 091°52'0 0.0
2018-Jan-06 18:00N 46°48' W 091°52'0 0.0
2018-Jan-06 17:30N 46°48' W 091°52'0 0.0
2018-Jan-06 17:00N 46°48' W 091°52'0 0.0
2018-Jan-06 16:30N 46°48' W 091°52'0 0.0
2018-Jan-06 15:59N 46°48' W 091°52'0 0.1
2018-Jan-06 15:30N 46°48' W 091°52'2 4.5
2018-Jan-06 15:00N 46°48' W 091°49'611.5
2018-Jan-06 14:30N 46°50' W 091°41'5 6.0
2018-Jan-06 13:44N 46°51' W 091°48'312.1
2018-Jan-06 13:30N 46°49' W 091°52'4 8.4
2018-Jan-06 13:00N 46°47' W 091°57'1 1.0
2018-Jan-06 12:30N 46°47' W 091°57'0 0.1
2018-Jan-06 12:00N 46°47' W 091°57'0 0.2
2018-Jan-06 11:30N 46°47' W 091°57'0 0.3
2018-Jan-06 11:00N 46°47' W 091°57'0 0.1
2018-Jan-06 10:30N 46°47' W 091°57'0 0.0
2018-Jan-06 10:00N 46°47' W 091°57'0 0.1
2018-Jan-06 09:31N 46°47' W 091°57'0 0.0
2018-Jan-06 09:00N 46°47' W 091°57'0 0.0
2018-Jan-06 08:30N 46°47' W 091°57'0 0.1
2018-Jan-06 08:00N 46°47' W 091°57'0 0.2
2018-Jan-06 07:30N 46°47' W 091°57'0 0.1
2018-Jan-06 07:01N 46°47' W 091°57'0 0.0
2018-Jan-06 06:30N 46°47' W 091°57'0 0.1
2018-Jan-06 06:00N 46°47' W 091°57'0 0.1
2018-Jan-06 05:30N 46°46' W 091°57'0 0.0
2018-Jan-06 05:00N 46°46' W 091°57'0 0.0
2018-Jan-06 04:30N 46°46' W 091°57'0 0.1
2018-Jan-06 04:00N 46°46' W 091°58'0 0.0
2018-Jan-06 03:30N 46°46' W 091°58'0 0.0
2018-Jan-06 03:00N 46°46' W 091°58'0 0.0
2018-Jan-06 02:30N 46°46' W 091°58'0 0.0
2018-Jan-06 02:00N 46°46' W 091°58'0 0.1
2018-Jan-06 01:30N 46°46' W 091°58'0 0.0
2018-Jan-06 01:00N 46°46' W 091°57'0 0.0
2018-Jan-06 00:30N 46°46' W 091°57'0 0.0
2018-Jan-06 00:00N 46°46' W 091°57'0 0.0
2018-Jan-05 23:30N 46°46' W 091°57'0 0.3
2018-Jan-05 23:00N 46°47' W 091°57'0 0.3
2018-Jan-05 22:30N 46°47' W 091°58'0 0.1
2018-Jan-05 22:00N 46°47' W 091°58'0 0.0
2018-Jan-05 21:30N 46°47' W 091°58'0 0.0
2018-Jan-05 21:00N 46°47' W 091°58'0 0.0
2018-Jan-05 20:30N 46°47' W 091°58'0 0.0
2018-Jan-05 20:00N 46°47' W 091°58'0 0.2
2018-Jan-05 19:30N 46°47' W 091°58'0 0.1
2018-Jan-05 19:00N 46°47' W 091°58'0 0.0
2018-Jan-05 18:30N 46°47' W 091°58'0 0.0
2018-Jan-05 18:01N 46°47' W 091°58'0 0.0
2018-Jan-05 17:30N 46°47' W 091°58'0 0.0
2018-Jan-05 17:00N 46°47' W 091°58'0 0.0
2018-Jan-05 16:30N 46°47' W 091°58'0 0.0
2018-Jan-05 16:00N 46°47' W 091°58'0 0.0
2018-Jan-05 15:30N 46°47' W 091°58'0 0.1
2018-Jan-05 15:00N 46°46' W 091°58'0 0.0
2018-Jan-05 14:31N 46°46' W 091°58'0 0.0
2018-Jan-05 14:00N 46°47' W 091°58'0 0.0
2018-Jan-05 13:30N 46°46' W 091°58'0 0.0
2018-Jan-05 13:00N 46°46' W 091°58'0 0.0
2018-Jan-05 12:30N 46°46' W 091°58'0 0.0
2018-Jan-05 12:00N 46°46' W 091°58'0 0.1
2018-Jan-05 11:30N 46°46' W 091°58'0 0.1
2018-Jan-05 11:00N 46°47' W 091°58'0 0.1
2018-Jan-05 10:30N 46°46' W 091°58'0 0.1
2018-Jan-05 10:00N 46°47' W 091°58'0 0.0
2018-Jan-05 09:30N 46°47' W 091°58'0 0.0
2018-Jan-05 09:00N 46°46' W 091°58'0 0.0
2018-Jan-05 08:30N 46°47' W 091°58'0 0.0
2018-Jan-05 08:00N 46°46' W 091°58'0 0.0
2018-Jan-05 07:30N 46°46' W 091°58'0 0.1
2018-Jan-05 07:00N 46°46' W 091°58'0 0.0
2018-Jan-05 06:30N 46°46' W 091°58'0 0.0
2018-Jan-05 06:00N 46°46' W 091°58'0 0.0
2018-Jan-05 05:30N 46°46' W 091°58'0 0.0
2018-Jan-05 05:01N 46°46' W 091°58'0 0.1
2018-Jan-05 04:30N 46°46' W 091°58'0 0.1
2018-Jan-05 04:01N 46°46' W 091°58'0 0.0
2018-Jan-05 03:30N 46°46' W 091°58'0 0.1
2018-Jan-05 03:00N 46°46' W 091°58'0 0.0
2018-Jan-05 02:31N 46°46' W 091°58'0 0.0
2018-Jan-05 02:01N 46°46' W 091°58'0 0.0
2018-Jan-05 01:30N 46°46' W 091°58'0 0.0
2018-Jan-05 01:00N 46°46' W 091°58'0 0.0
2018-Jan-05 00:31N 46°46' W 091°58'0 0.1
2018-Jan-05 00:00N 46°47' W 091°57'0 0.0
2018-Jan-04 23:30N 46°47' W 091°57'0 0.0
2018-Jan-04 23:00N 46°47' W 091°57'0 0.4
2018-Jan-04 22:30N 46°47' W 091°57'0 0.0
2018-Jan-04 22:00N 46°47' W 091°57'0 0.0
2018-Jan-04 21:30N 46°47' W 091°57'0 0.1
2018-Jan-04 21:00N 46°47' W 091°58'0 0.0
2018-Jan-04 20:30N 46°47' W 091°58'0 0.0
2018-Jan-04 20:00N 46°47' W 091°58'0 0.0
2018-Jan-04 19:30N 46°47' W 091°58'0 0.0
2018-Jan-04 19:00N 46°47' W 091°57'0 0.1
2018-Jan-04 18:30N 46°47' W 091°57'0 0.1
2018-Jan-04 18:00N 46°47' W 091°57'0 0.0
2018-Jan-04 17:30N 46°47' W 091°57'0 0.4
2018-Jan-04 17:00N 46°47' W 091°57'0 0.3
2018-Jan-04 16:30N 46°46' W 091°58'0 0.0
2018-Jan-04 16:00N 46°46' W 091°58'0 0.0
2018-Jan-04 15:30N 46°46' W 091°58'0 0.0
2018-Jan-04 15:00N 46°46' W 091°58'0 0.0
2018-Jan-04 14:31N 46°46' W 091°58'0 0.0
2018-Jan-04 14:00N 46°46' W 091°58'0 0.0
2018-Jan-04 13:30N 46°46' W 091°58'0 0.0
2018-Jan-04 13:01N 46°46' W 091°58'0 0.1
2018-Jan-04 12:31N 46°47' W 091°58'0 0.0
2018-Jan-04 12:00N 46°46' W 091°58'0 0.1
2018-Jan-04 11:30N 46°46' W 091°58'0 0.0
2018-Jan-04 11:00N 46°46' W 091°58'0 0.0
2018-Jan-04 10:30N 46°46' W 091°58'0 0.0
2018-Jan-04 10:00N 46°46' W 091°58'0 0.0
2018-Jan-04 09:30N 46°46' W 091°58'0 0.0
2018-Jan-04 09:00N 46°46' W 091°58'0 0.0
2018-Jan-04 08:30N 46°47' W 091°58'0 0.0
2018-Jan-04 08:00N 46°46' W 091°58'0 0.1
2018-Jan-04 07:30N 46°47' W 091°58'0 0.0
2018-Jan-04 07:00N 46°47' W 091°58'0 0.0
2018-Jan-04 06:30N 46°47' W 091°58'0 0.0
2018-Jan-04 06:00N 46°47' W 091°58'0 0.2
2018-Jan-04 05:30N 46°46' W 091°58'0 0.0
2018-Jan-04 05:00N 46°46' W 091°58'0 0.1
2018-Jan-04 04:30N 46°46' W 091°58'0 0.0
2018-Jan-04 04:00N 46°46' W 091°58'0 0.1
2018-Jan-04 03:30N 46°46' W 091°58'0 0.0
2018-Jan-04 03:00N 46°46' W 091°58'0 0.0
2018-Jan-04 02:31N 46°46' W 091°58'0 0.0
2018-Jan-04 02:00N 46°46' W 091°58'0 0.1
2018-Jan-04 01:31N 46°46' W 091°58'0 0.1
2018-Jan-04 01:01N 46°46' W 091°58'0 0.0
2018-Jan-04 00:31N 46°46' W 091°58'0 0.0
2018-Jan-04 00:00N 46°46' W 091°58'0 0.0
2018-Jan-03 23:30N 46°46' W 091°58'0 0.0
2018-Jan-03 23:00N 46°47' W 091°57'0 0.0
2018-Jan-03 22:31N 46°46' W 091°57'0 0.0
2018-Jan-03 22:00N 46°46' W 091°57'0 0.0
2018-Jan-03 21:30N 46°46' W 091°58'0 0.0
2018-Jan-03 21:01N 46°46' W 091°58'0 0.0
2018-Jan-03 20:30N 46°46' W 091°58'0 0.1
2018-Jan-03 20:00N 46°46' W 091°58'0 0.0
2018-Jan-03 19:30N 46°46' W 091°58'0 0.0
2018-Jan-03 19:00N 46°46' W 091°58'0 0.1
2018-Jan-03 18:30N 46°46' W 091°57'0 0.0
2018-Jan-03 18:00N 46°46' W 091°58'0 0.0
2018-Jan-03 17:30N 46°46' W 091°57'0 0.0
2018-Jan-03 17:00N 46°46' W 091°58'0 0.0
2018-Jan-03 16:30N 46°46' W 091°58'0 0.0
2018-Jan-03 16:00N 46°46' W 091°58'0 0.0
2018-Jan-03 15:30N 46°46' W 091°58'0 0.1
2018-Jan-03 15:00N 46°46' W 091°57'0 0.0
2018-Jan-03 14:30N 46°46' W 091°57'0 0.1
2018-Jan-03 14:00N 46°46' W 091°58'0 0.0
2018-Jan-03 13:30N 46°46' W 091°58'0 0.0
2018-Jan-03 13:00N 46°46' W 091°58'0 0.0
2018-Jan-03 12:31N 46°46' W 091°58'0 0.0
2018-Jan-03 12:00N 46°46' W 091°58'0 0.0
2018-Jan-03 11:31N 46°46' W 091°58'0 0.1
2018-Jan-03 11:00N 46°47' W 091°57'0 0.1
2018-Jan-03 10:31N 46°46' W 091°58'0 0.0
2018-Jan-03 10:01N 46°46' W 091°58'0 0.1
2018-Jan-03 09:30N 46°46' W 091°57'0 0.1
2018-Jan-03 09:01N 46°47' W 091°57'0 0.1
2018-Jan-03 08:30N 46°46' W 091°57'0 0.0
2018-Jan-03 08:00N 46°46' W 091°58'0 0.0
2018-Jan-03 07:30N 46°46' W 091°58'0 0.0
2018-Jan-03 07:00N 46°46' W 091°58'0 0.1
2018-Jan-03 06:30N 46°46' W 091°57'0 0.0
2018-Jan-03 06:00N 46°47' W 091°57'0 0.2
2018-Jan-03 05:30N 46°46' W 091°58'0 0.1
2018-Jan-03 05:00N 46°46' W 091°58'0 0.0
2018-Jan-03 04:30N 46°46' W 091°58'0 0.0
2018-Jan-03 04:00N 46°46' W 091°58'0 0.0
2018-Jan-03 03:30N 46°46' W 091°58'0 0.1
2018-Jan-03 03:00N 46°47' W 091°57'0 0.0
2018-Jan-03 02:30N 46°47' W 091°57'0 0.0
2018-Jan-03 02:00N 46°47' W 091°57'0 0.1
2018-Jan-03 01:30N 46°47' W 091°57'0 0.1
2018-Jan-03 01:00N 46°47' W 091°57'0 0.2
2018-Jan-03 00:30N 46°47' W 091°57'0 0.1
2018-Jan-03 00:00N 46°47' W 091°57'0 0.0
2018-Jan-02 23:30N 46°47' W 091°57'0 0.0
2018-Jan-02 23:01N 46°47' W 091°57'0 0.1
2018-Jan-02 22:31N 46°47' W 091°57'0 0.0
2018-Jan-02 22:01N 46°47' W 091°57'0 0.0
2018-Jan-02 21:31N 46°47' W 091°57'0 0.1
2018-Jan-02 21:01N 46°47' W 091°57'0 0.0
2018-Jan-02 20:31N 46°47' W 091°57'0 0.1
2018-Jan-02 20:00N 46°47' W 091°57'0 0.1
2018-Jan-02 19:31N 46°47' W 091°57'0 0.0
2018-Jan-02 19:00N 46°47' W 091°57'0 0.0
2018-Jan-02 18:30N 46°47' W 091°57'0 0.0
2018-Jan-02 18:00N 46°47' W 091°57'0 0.0
2018-Jan-02 17:30N 46°47' W 091°57'0 0.2
2018-Jan-02 17:00N 46°47' W 091°57'2 4.1
2018-Jan-02 16:30N 46°48' W 091°60'0 0.2
2018-Jan-02 16:00N 46°48' W 091°60'0 0.3
2018-Jan-02 15:30N 46°48' W 091°60'0 0.1
2018-Jan-02 15:00N 46°48' W 091°60'0 0.0
2018-Jan-02 14:30N 46°48' W 091°60'0 0.0
2018-Jan-02 14:00N 46°48' W 091°60'0 0.0
2018-Jan-02 13:30N 46°48' W 091°60'0 0.0
2018-Jan-02 13:00N 46°48' W 091°60'0 0.1
2018-Jan-02 12:30N 46°48' W 091°60'0 0.0
2018-Jan-02 12:00N 46°48' W 091°60'0 0.0
2018-Jan-02 11:30N 46°48' W 091°60'0 0.1
2018-Jan-02 11:00N 46°48' W 091°60'0 0.0
2018-Jan-02 10:30N 46°48' W 091°60'0 0.1
2018-Jan-02 10:00N 46°48' W 091°60'0 0.0
2018-Jan-02 09:31N 46°48' W 091°60'0 0.0
2018-Jan-02 08:31N 46°48' W 091°60'0 0.1
2018-Jan-02 08:01N 46°48' W 091°60'0 0.1
2018-Jan-02 07:30N 46°48' W 091°60'0 0.0
2018-Jan-02 07:00N 46°48' W 091°60'0 0.0
2018-Jan-02 06:30N 46°48' W 091°60'0 0.0
2018-Jan-02 06:00N 46°48' W 091°60'0 0.0
2018-Jan-02 05:29N 46°48' W 091°60'0 0.0
2018-Jan-02 04:30N 46°48' W 091°60'0 0.0
2018-Jan-02 04:00N 46°48' W 091°60'0 0.0
2018-Jan-02 03:30N 46°48' W 091°60'0 0.1
2018-Jan-02 03:00N 46°48' W 092°00'2 4.8
2018-Jan-02 02:30N 46°47' W 092°03'2 4.8
2018-Jan-02 02:00N 46°46' W 092°06'0 0.3
2018-Jan-02 01:30N 46°46' W 092°06'0 0.0
2018-Jan-02 01:00N 46°46' W 092°06'0 0.0
2018-Jan-02 00:30N 46°46' W 092°06'0 0.0
2018-Jan-02 00:00N 46°46' W 092°06'0 0.0
2018-Jan-01 23:30N 46°46' W 092°06'0 0.0
2018-Jan-01 23:00N 46°46' W 092°06'0 0.0
2018-Jan-01 22:30N 46°46' W 092°06'0 0.0
2018-Jan-01 22:00N 46°46' W 092°06'0 0.0
2018-Jan-01 21:30N 46°46' W 092°06'0 0.0
2018-Jan-01 21:00N 46°46' W 092°06'0 0.0
2018-Jan-01 20:30N 46°46' W 092°06'0 0.0
2018-Jan-01 20:00N 46°46' W 092°06'0 0.0
2018-Jan-01 19:31N 46°46' W 092°06'0 0.0
2018-Jan-01 19:00N 46°46' W 092°06'0 0.0
2018-Jan-01 18:30N 46°46' W 092°06'0 0.0
2018-Jan-01 18:01N 46°46' W 092°06'1 1.2
2018-Jan-01 17:30N 46°46' W 092°06'5 1.8
2018-Jan-01 15:01N 46°49' W 092°00'2 3.4
2018-Jan-01 14:31N 46°50' W 091°58'3 5.2
2018-Jan-01 14:01N 46°51' W 091°55'4 8.6
2018-Jan-01 13:31N 46°53' W 091°50'5 9.1
2018-Jan-01 13:01N 46°56' W 091°44'346 7.9
2017-Dec-30 17:21N 45°39' W 083°36'511.7
2017-Dec-30 16:54N 45°34' W 083°31'911.6
2017-Dec-30 16:08N 45°27' W 083°24'  

Dump ship's entire track history